sensor_id;sensor_type;location;lat;lon;timestamp;temperature;humidity
26479;DHT22;14163;-26.142;27.992;2024-02-23T00:11:39;21.90;99.90
26479;DHT22;14163;-26.142;27.992;2024-02-23T00:14:11;22.00;99.90
26479;DHT22;14163;-26.142;27.992;2024-02-23T00:16:40;22.70;99.90
26479;DHT22;14163;-26.142;27.992;2024-02-23T00:19:10;23.50;99.90
26479;DHT22;14163;-26.142;27.992;2024-02-23T00:21:39;24.20;99.90
26479;DHT22;14163;-26.142;27.992;2024-02-23T00:24:09;24.70;99.90
26479;DHT22;14163;-26.142;27.992;2024-02-23T00:26:39;25.20;99.90
26479;DHT22;14163;-26.142;27.992;2024-02-23T00:29:09;25.60;99.90
26479;DHT22;14163;-26.142;27.992;2024-02-23T00:31:38;25.90;99.90
26479;DHT22;14163;-26.142;27.992;2024-02-23T00:34:08;26.10;99.90
26479;DHT22;14163;-26.142;27.992;2024-02-23T00:36:38;26.10;99.90
26479;DHT22;14163;-26.142;27.992;2024-02-23T00:39:08;26.20;99.90
26479;DHT22;14163;-26.142;27.992;2024-02-23T00:41:39;26.30;99.90
26479;DHT22;14163;-26.142;27.992;2024-02-23T00:44:08;26.40;99.90
26479;DHT22;14163;-26.142;27.992;2024-02-23T00:46:37;26.50;99.90
26479;DHT22;14163;-26.142;27.992;2024-02-23T00:49:06;26.50;99.90
26479;DHT22;14163;-26.142;27.992;2024-02-23T00:51:35;26.30;99.90
26479;DHT22;14163;-26.142;27.992;2024-02-23T00:54:04;26.20;99.90
26479;DHT22;14163;-26.142;27.992;2024-02-23T00:56:34;26.20;99.90
26479;DHT22;14163;-26.142;27.992;2024-02-23T00:59:05;26.10;99.90
26479;DHT22;14163;-26.142;27.992;2024-02-23T01:01:34;25.80;99.90
26479;DHT22;14163;-26.142;27.992;2024-02-23T01:04:04;25.80;99.90
26479;DHT22;14163;-26.142;27.992;2024-02-23T01:06:33;25.90;99.90
26479;DHT22;14163;-26.142;27.992;2024-02-23T01:09:02;26.00;99.90
26479;DHT22;14163;-26.142;27.992;2024-02-23T01:11:31;26.10;99.90
26479;DHT22;14163;-26.142;27.992;2024-02-23T01:14:00;26.20;99.90
26479;DHT22;14163;-26.142;27.992;2024-02-23T01:16:31;26.20;99.90
26479;DHT22;14163;-26.142;27.992;2024-02-23T01:19:00;26.40;99.90
26479;DHT22;14163;-26.142;27.992;2024-02-23T01:21:29;26.40;99.90
26479;DHT22;14163;-26.142;27.992;2024-02-23T01:23:58;26.40;99.90
26479;DHT22;14163;-26.142;27.992;2024-02-23T01:26:28;26.30;99.90
26479;DHT22;14163;-26.142;27.992;2024-02-23T01:28:57;26.30;99.90
26479;DHT22;14163;-26.142;27.992;2024-02-23T01:31:26;26.30;99.90
26479;DHT22;14163;-26.142;27.992;2024-02-23T01:33:56;26.20;99.90
26479;DHT22;14163;-26.142;27.992;2024-02-23T01:36:26;26.10;99.90
26479;DHT22;14163;-26.142;27.992;2024-02-23T01:38:55;26.00;99.90
26479;DHT22;14163;-26.142;27.992;2024-02-23T01:41:24;26.00;99.90
26479;DHT22;14163;-26.142;27.992;2024-02-23T01:43:53;26.00;99.90
26479;DHT22;14163;-26.142;27.992;2024-02-23T01:46:22;26.00;99.90
26479;DHT22;14163;-26.142;27.992;2024-02-23T01:48:51;26.10;99.90
26479;DHT22;14163;-26.142;27.992;2024-02-23T01:51:22;26.20;99.90
26479;DHT22;14163;-26.142;27.992;2024-02-23T01:53:52;26.20;99.90
26479;DHT22;14163;-26.142;27.992;2024-02-23T01:56:21;26.20;99.90
26479;DHT22;14163;-26.142;27.992;2024-02-23T01:58:50;26.20;99.90
26479;DHT22;14163;-26.142;27.992;2024-02-23T02:01:20;26.40;99.90
26479;DHT22;14163;-26.142;27.992;2024-02-23T02:03:49;26.40;99.90
26479;DHT22;14163;-26.142;27.992;2024-02-23T02:06:19;26.30;99.90
26479;DHT22;14163;-26.142;27.992;2024-02-23T02:08:49;26.20;99.90
26479;DHT22;14163;-26.142;27.992;2024-02-23T02:11:19;26.10;99.90
26479;DHT22;14163;-26.142;27.992;2024-02-23T02:13:48;26.20;99.90
26479;DHT22;14163;-26.142;27.992;2024-02-23T02:16:17;26.20;99.90
26479;DHT22;14163;-26.142;27.992;2024-02-23T02:18:46;26.20;99.90
26479;DHT22;14163;-26.142;27.992;2024-02-23T02:21:15;26.20;99.90
26479;DHT22;14163;-26.142;27.992;2024-02-23T02:23:44;26.00;99.90
26479;DHT22;14163;-26.142;27.992;2024-02-23T02:26:15;26.00;99.90
26479;DHT22;14163;-26.142;27.992;2024-02-23T02:28:44;25.90;99.90
26479;DHT22;14163;-26.142;27.992;2024-02-23T02:31:13;25.90;99.90
26479;DHT22;14163;-26.142;27.992;2024-02-23T02:33:42;26.10;99.90
26479;DHT22;14163;-26.142;27.992;2024-02-23T02:36:11;26.00;99.90
26479;DHT22;14163;-26.142;27.992;2024-02-23T02:38:40;26.00;99.90
26479;DHT22;14163;-26.142;27.992;2024-02-23T02:41:09;25.90;99.90
26479;DHT22;14163;-26.142;27.992;2024-02-23T02:43:40;25.80;99.90
26479;DHT22;14163;-26.142;27.992;2024-02-23T02:46:09;25.80;99.90
26479;DHT22;14163;-26.142;27.992;2024-02-23T02:48:38;25.90;99.90
26479;DHT22;14163;-26.142;27.992;2024-02-23T02:51:08;25.90;99.90
26479;DHT22;14163;-26.142;27.992;2024-02-23T02:53:37;25.90;99.90
26479;DHT22;14163;-26.142;27.992;2024-02-23T02:56:06;25.90;99.90
26479;DHT22;14163;-26.142;27.992;2024-02-23T02:58:35;25.90;99.90
26479;DHT22;14163;-26.142;27.992;2024-02-23T03:01:06;25.90;99.90
26479;DHT22;14163;-26.142;27.992;2024-02-23T03:03:35;26.00;99.90
26479;DHT22;14163;-26.142;27.992;2024-02-23T03:06:05;26.00;99.90
26479;DHT22;14163;-26.142;27.992;2024-02-23T03:08:34;25.90;99.90
26479;DHT22;14163;-26.142;27.992;2024-02-23T03:11:03;25.90;99.90
26479;DHT22;14163;-26.142;27.992;2024-02-23T03:13:32;25.80;99.90
26479;DHT22;14163;-26.142;27.992;2024-02-23T03:16:01;25.70;99.90
26479;DHT22;14163;-26.142;27.992;2024-02-23T03:18:32;25.60;99.90
26479;DHT22;14163;-26.142;27.992;2024-02-23T03:21:01;25.60;99.90
26479;DHT22;14163;-26.142;27.992;2024-02-23T03:23:30;25.40;99.90
26479;DHT22;14163;-26.142;27.992;2024-02-23T03:25:59;25.30;99.90
26479;DHT22;14163;-26.142;27.992;2024-02-23T03:28:29;25.20;99.90
26479;DHT22;14163;-26.142;27.992;2024-02-23T03:30:57;25.20;99.90
26479;DHT22;14163;-26.142;27.992;2024-02-23T03:33:26;25.20;99.90
26479;DHT22;14163;-26.142;27.992;2024-02-23T03:35:58;25.20;99.90
26479;DHT22;14163;-26.142;27.992;2024-02-23T03:38:27;25.20;99.90
26479;DHT22;14163;-26.142;27.992;2024-02-23T03:40:57;25.10;99.90
26479;DHT22;14163;-26.142;27.992;2024-02-23T03:43:26;25.20;99.90
26479;DHT22;14163;-26.142;27.992;2024-02-23T03:45:55;25.30;99.90
26479;DHT22;14163;-26.142;27.992;2024-02-23T03:48:24;25.30;99.90
26479;DHT22;14163;-26.142;27.992;2024-02-23T03:50:55;25.30;99.90
26479;DHT22;14163;-26.142;27.992;2024-02-23T03:53:24;25.30;99.90
26479;DHT22;14163;-26.142;27.992;2024-02-23T03:55:53;25.30;99.90
26479;DHT22;14163;-26.142;27.992;2024-02-23T03:58:22;25.30;99.90
26479;DHT22;14163;-26.142;27.992;2024-02-23T04:00:52;25.30;99.90
26479;DHT22;14163;-26.142;27.992;2024-02-23T04:03:21;25.30;99.90
26479;DHT22;14163;-26.142;27.992;2024-02-23T04:05:50;25.40;99.90
26479;DHT22;14163;-26.142;27.992;2024-02-23T04:08:21;25.40;99.90
26479;DHT22;14163;-26.142;27.992;2024-02-23T04:10:50;25.40;99.90
26479;DHT22;14163;-26.142;27.992;2024-02-23T04:13:19;25.30;99.90
26479;DHT22;14163;-26.142;27.992;2024-02-23T04:15:48;25.30;99.90
26479;DHT22;14163;-26.142;27.992;2024-02-23T04:18:17;25.30;99.90
26479;DHT22;14163;-26.142;27.992;2024-02-23T04:20:46;25.30;99.90
26479;DHT22;14163;-26.142;27.992;2024-02-23T04:23:15;25.30;99.90
26479;DHT22;14163;-26.142;27.992;2024-02-23T04:25:46;25.30;99.90
26479;DHT22;14163;-26.142;27.992;2024-02-23T04:28:15;25.40;99.90
26479;DHT22;14163;-26.142;27.992;2024-02-23T04:30:44;25.40;99.90
26479;DHT22;14163;-26.142;27.992;2024-02-23T04:33:13;25.60;99.90
26479;DHT22;14163;-26.142;27.992;2024-02-23T04:35:43;25.70;99.90
26479;DHT22;14163;-26.142;27.992;2024-02-23T04:38:12;25.70;99.90
26479;DHT22;14163;-26.142;27.992;2024-02-23T04:40:41;25.70;99.90
26479;DHT22;14163;-26.142;27.992;2024-02-23T04:43:12;25.70;99.90
26479;DHT22;14163;-26.142;27.992;2024-02-23T04:45:41;25.70;99.90
26479;DHT22;14163;-26.142;27.992;2024-02-23T04:48:10;25.70;99.90
26479;DHT22;14163;-26.142;27.992;2024-02-23T04:50:39;25.70;99.90
26479;DHT22;14163;-26.142;27.992;2024-02-23T04:53:08;25.80;99.90
26479;DHT22;14163;-26.142;27.992;2024-02-23T04:55:37;26.00;99.90
26479;DHT22;14163;-26.142;27.992;2024-02-23T04:58:07;26.00;99.90
26479;DHT22;14163;-26.142;27.992;2024-02-23T05:00:40;26.10;99.90
26479;DHT22;14163;-26.142;27.992;2024-02-23T05:03:09;26.00;99.90
26479;DHT22;14163;-26.142;27.992;2024-02-23T05:05:38;26.00;99.90
26479;DHT22;14163;-26.142;27.992;2024-02-23T05:08:07;25.90;99.90
26479;DHT22;14163;-26.142;27.992;2024-02-23T05:10:37;25.80;99.90
26479;DHT22;14163;-26.142;27.992;2024-02-23T05:13:06;25.80;99.90
26479;DHT22;14163;-26.142;27.992;2024-02-23T05:15:35;25.60;99.90
26479;DHT22;14163;-26.142;27.992;2024-02-23T05:18:06;25.30;99.90
26479;DHT22;14163;-26.142;27.992;2024-02-23T05:20:35;25.00;99.90
26479;DHT22;14163;-26.142;27.992;2024-02-23T05:23:05;24.60;99.90
26479;DHT22;14163;-26.142;27.992;2024-02-23T05:25:34;24.50;99.90
26479;DHT22;14163;-26.142;27.992;2024-02-23T05:28:03;24.50;99.90
26479;DHT22;14163;-26.142;27.992;2024-02-23T05:30:32;24.40;99.90
26479;DHT22;14163;-26.142;27.992;2024-02-23T05:33:02;24.50;99.90
26479;DHT22;14163;-26.142;27.992;2024-02-23T05:35:33;24.40;99.90
26479;DHT22;14163;-26.142;27.992;2024-02-23T05:38:02;24.20;99.90
26479;DHT22;14163;-26.142;27.992;2024-02-23T05:40:33;24.10;99.90
26479;DHT22;14163;-26.142;27.992;2024-02-23T05:43:02;24.20;99.90
26479;DHT22;14163;-26.142;27.992;2024-02-23T05:45:32;24.20;99.90
26479;DHT22;14163;-26.142;27.992;2024-02-23T05:48:01;24.10;99.90
26479;DHT22;14163;-26.142;27.992;2024-02-23T05:50:30;24.10;99.90
26479;DHT22;14163;-26.142;27.992;2024-02-23T05:53:01;24.00;99.90
26479;DHT22;14163;-26.142;27.992;2024-02-23T05:55:31;24.10;99.90
26479;DHT22;14163;-26.142;27.992;2024-02-23T05:58:00;24.20;99.90
26479;DHT22;14163;-26.142;27.992;2024-02-23T06:00:30;24.30;99.90
26479;DHT22;14163;-26.142;27.992;2024-02-23T08:07:19;23.70;99.90
26479;DHT22;14163;-26.142;27.992;2024-02-23T08:09:49;23.90;99.90
26479;DHT22;14163;-26.142;27.992;2024-02-23T08:12:18;24.50;99.90
26479;DHT22;14163;-26.142;27.992;2024-02-23T08:14:48;25.00;99.90
26479;DHT22;14163;-26.142;27.992;2024-02-23T08:17:20;25.40;99.90
26479;DHT22;14163;-26.142;27.992;2024-02-23T08:19:49;25.90;99.90
26479;DHT22;14163;-26.142;27.992;2024-02-23T08:22:20;26.20;99.90
26479;DHT22;14163;-26.142;27.992;2024-02-23T08:24:50;26.30;99.90
26479;DHT22;14163;-26.142;27.992;2024-02-23T08:27:19;26.40;99.90
26479;DHT22;14163;-26.142;27.992;2024-02-23T08:29:48;26.90;99.90
26479;DHT22;14163;-26.142;27.992;2024-02-23T08:32:17;27.20;99.90
26479;DHT22;14163;-26.142;27.992;2024-02-23T08:34:47;27.20;99.90
26479;DHT22;14163;-26.142;27.992;2024-02-23T08:37:18;27.00;99.90
26479;DHT22;14163;-26.142;27.992;2024-02-23T08:39:47;26.90;99.90
26479;DHT22;14163;-26.142;27.992;2024-02-23T08:42:16;27.00;99.90
26479;DHT22;14163;-26.142;27.992;2024-02-23T08:44:45;27.10;99.90
26479;DHT22;14163;-26.142;27.992;2024-02-23T08:47:14;27.30;99.90
26479;DHT22;14163;-26.142;27.992;2024-02-23T08:49:44;27.40;99.90
26479;DHT22;14163;-26.142;27.992;2024-02-23T08:52:13;27.30;99.90
26479;DHT22;14163;-26.142;27.992;2024-02-23T08:54:44;27.30;99.90
26479;DHT22;14163;-26.142;27.992;2024-02-23T08:57:13;27.50;99.90
26479;DHT22;14163;-26.142;27.992;2024-02-23T08:59:46;27.70;99.90
26479;DHT22;14163;-26.142;27.992;2024-02-23T09:02:15;27.80;99.90
26479;DHT22;14163;-26.142;27.992;2024-02-23T09:04:45;27.60;99.90
26479;DHT22;14163;-26.142;27.992;2024-02-23T09:07:27;27.40;99.90
26479;DHT22;14163;-26.142;27.992;2024-02-23T09:10:06;27.30;99.90
26479;DHT22;14163;-26.142;27.992;2024-02-23T09:12:35;27.30;99.90
26479;DHT22;14163;-26.142;27.992;2024-02-23T09:15:05;27.30;99.90
26479;DHT22;14163;-26.142;27.992;2024-02-23T09:17:34;27.30;99.90
26479;DHT22;14163;-26.142;27.992;2024-02-23T09:20:04;27.50;99.90
26479;DHT22;14163;-26.142;27.992;2024-02-23T09:22:34;27.60;99.90
26479;DHT22;14163;-26.142;27.992;2024-02-23T09:25:06;27.70;99.90
26479;DHT22;14163;-26.142;27.992;2024-02-23T09:27:35;27.90;99.90
26479;DHT22;14163;-26.142;27.992;2024-02-23T09:30:11;28.10;99.90
26479;DHT22;14163;-26.142;27.992;2024-02-23T09:32:41;28.20;99.90
26479;DHT22;14163;-26.142;27.992;2024-02-23T09:35:11;28.20;99.90
26479;DHT22;14163;-26.142;27.992;2024-02-23T09:37:40;28.10;99.90
26479;DHT22;14163;-26.142;27.992;2024-02-23T09:40:12;28.10;99.90
26479;DHT22;14163;-26.142;27.992;2024-02-23T09:42:42;28.10;99.90
26479;DHT22;14163;-26.142;27.992;2024-02-23T09:45:12;28.20;99.90
26479;DHT22;14163;-26.142;27.992;2024-02-23T09:47:42;28.30;99.90
26479;DHT22;14163;-26.142;27.992;2024-02-23T09:50:12;28.30;99.90
26479;DHT22;14163;-26.142;27.992;2024-02-23T09:52:42;28.50;99.90
26479;DHT22;14163;-26.142;27.992;2024-02-23T09:55:13;28.60;99.90
26479;DHT22;14163;-26.142;27.992;2024-02-23T09:57:42;28.70;99.90
26479;DHT22;14163;-26.142;27.992;2024-02-23T10:00:13;28.70;99.90
26479;DHT22;14163;-26.142;27.992;2024-02-23T10:02:44;28.70;99.90
26479;DHT22;14163;-26.142;27.992;2024-02-23T10:05:14;28.90;99.90
26479;DHT22;14163;-26.142;27.992;2024-02-23T10:07:45;29.10;99.90
26479;DHT22;14163;-26.142;27.992;2024-02-23T10:10:16;29.30;99.90
26479;DHT22;14163;-26.142;27.992;2024-02-23T10:12:53;29.20;99.90
26479;DHT22;14163;-26.142;27.992;2024-02-23T10:15:22;29.10;99.90
26479;DHT22;14163;-26.142;27.992;2024-02-23T10:17:51;29.00;99.90
26479;DHT22;14163;-26.142;27.992;2024-02-23T10:20:21;29.10;99.90
26479;DHT22;14163;-26.142;27.992;2024-02-23T10:22:50;29.50;99.90
26479;DHT22;14163;-26.142;27.992;2024-02-23T10:25:22;29.50;99.90
26479;DHT22;14163;-26.142;27.992;2024-02-23T10:27:51;29.70;99.90
26479;DHT22;14163;-26.142;27.992;2024-02-23T10:30:20;29.80;99.90
26479;DHT22;14163;-26.142;27.992;2024-02-23T10:32:51;29.80;99.90
26479;DHT22;14163;-26.142;27.992;2024-02-23T10:35:24;29.80;99.90
26479;DHT22;14163;-26.142;27.992;2024-02-23T10:37:54;29.90;99.90
26479;DHT22;14163;-26.142;27.992;2024-02-23T10:40:25;30.00;99.90
26479;DHT22;14163;-26.142;27.992;2024-02-23T10:43:00;30.10;99.90
26479;DHT22;14163;-26.142;27.992;2024-02-23T10:45:31;30.30;99.90
26479;DHT22;14163;-26.142;27.992;2024-02-23T10:48:01;30.40;99.90
26479;DHT22;14163;-26.142;27.992;2024-02-23T10:50:30;30.30;99.90
26479;DHT22;14163;-26.142;27.992;2024-02-23T10:52:59;30.30;99.90
26479;DHT22;14163;-26.142;27.992;2024-02-23T10:55:32;30.40;99.90
26479;DHT22;14163;-26.142;27.992;2024-02-23T10:58:01;30.50;99.90
26479;DHT22;14163;-26.142;27.992;2024-02-23T11:00:34;30.70;99.90
26479;DHT22;14163;-26.142;27.992;2024-02-23T11:03:02;30.90;99.90
26479;DHT22;14163;-26.142;27.992;2024-02-23T11:05:33;30.90;99.90
26479;DHT22;14163;-26.142;27.992;2024-02-23T11:08:04;30.80;99.90
26479;DHT22;14163;-26.142;27.992;2024-02-23T11:10:48;30.60;99.90
26479;DHT22;14163;-26.142;27.992;2024-02-23T11:13:18;30.70;99.90
26479;DHT22;14163;-26.142;27.992;2024-02-23T11:15:47;30.90;99.90
26479;DHT22;14163;-26.142;27.992;2024-02-23T11:18:22;31.00;99.90
26479;DHT22;14163;-26.142;27.992;2024-02-23T11:20:55;31.20;99.90
26479;DHT22;14163;-26.142;27.992;2024-02-23T11:23:24;31.50;99.90
26479;DHT22;14163;-26.142;27.992;2024-02-23T11:26:10;31.40;99.90
26479;DHT22;14163;-26.142;27.992;2024-02-23T11:28:43;31.40;99.90
26479;DHT22;14163;-26.142;27.992;2024-02-23T11:31:13;31.50;99.90
26479;DHT22;14163;-26.142;27.992;2024-02-23T11:33:49;31.80;99.90
26479;DHT22;14163;-26.142;27.992;2024-02-23T11:36:24;32.10;99.90
26479;DHT22;14163;-26.142;27.992;2024-02-23T11:38:57;32.70;99.90
26479;DHT22;14163;-26.142;27.992;2024-02-23T11:41:29;33.20;99.90
26479;DHT22;14163;-26.142;27.992;2024-02-23T11:43:58;33.70;99.90
26479;DHT22;14163;-26.142;27.992;2024-02-23T11:46:27;34.50;99.90
26479;DHT22;14163;-26.142;27.992;2024-02-23T11:48:56;35.70;99.10
26479;DHT22;14163;-26.142;27.992;2024-02-23T11:51:26;36.80;95.80
26479;DHT22;14163;-26.142;27.992;2024-02-23T11:53:58;37.30;92.70
26479;DHT22;14163;-26.142;27.992;2024-02-23T11:56:29;37.80;91.00
26479;DHT22;14163;-26.142;27.992;2024-02-23T11:58:58;38.10;87.20
26479;DHT22;14163;-26.142;27.992;2024-02-23T12:01:29;38.30;86.40
26479;DHT22;14163;-26.142;27.992;2024-02-23T12:03:59;38.60;85.60
26479;DHT22;14163;-26.142;27.992;2024-02-23T12:06:28;39.20;80.40
26479;DHT22;14163;-26.142;27.992;2024-02-23T12:08:59;39.40;78.50
26479;DHT22;14163;-26.142;27.992;2024-02-23T12:11:30;38.80;77.70
26479;DHT22;14163;-26.142;27.992;2024-02-23T12:14:00;37.60;78.50
26479;DHT22;14163;-26.142;27.992;2024-02-23T12:16:34;36.90;80.30
26479;DHT22;14163;-26.142;27.992;2024-02-23T12:19:03;36.20;79.50
26479;DHT22;14163;-26.142;27.992;2024-02-23T12:21:35;35.90;81.20
26479;DHT22;14163;-26.142;27.992;2024-02-23T12:24:05;36.50;83.10
26479;DHT22;14163;-26.142;27.992;2024-02-23T12:26:37;37.00;78.00
26479;DHT22;14163;-26.142;27.992;2024-02-23T12:29:06;36.60;77.40
26479;DHT22;14163;-26.142;27.992;2024-02-23T12:31:35;36.20;79.10
26479;DHT22;14163;-26.142;27.992;2024-02-23T12:34:04;35.90;78.70
26479;DHT22;14163;-26.142;27.992;2024-02-23T12:36:36;35.30;79.50
26479;DHT22;14163;-26.142;27.992;2024-02-23T12:39:05;35.20;81.00
26479;DHT22;14163;-26.142;27.992;2024-02-23T12:41:36;35.70;80.50
26479;DHT22;14163;-26.142;27.992;2024-02-23T12:44:05;35.90;79.00
26479;DHT22;14163;-26.142;27.992;2024-02-23T12:46:34;35.60;79.30
26479;DHT22;14163;-26.142;27.992;2024-02-23T12:49:03;35.40;78.50
26479;DHT22;14163;-26.142;27.992;2024-02-23T12:51:32;34.70;78.10
26479;DHT22;14163;-26.142;27.992;2024-02-23T12:54:01;34.10;81.20
26479;DHT22;14163;-26.142;27.992;2024-02-23T12:56:31;33.80;84.70
26479;DHT22;14163;-26.142;27.992;2024-02-23T12:59:02;33.90;84.50
26479;DHT22;14163;-26.142;27.992;2024-02-23T13:01:31;33.80;85.40
26479;DHT22;14163;-26.142;27.992;2024-02-23T13:04:03;33.90;82.60
26479;DHT22;14163;-26.142;27.992;2024-02-23T13:06:38;34.10;80.40
26479;DHT22;14163;-26.142;27.992;2024-02-23T13:09:07;34.10;78.80
26479;DHT22;14163;-26.142;27.992;2024-02-23T13:11:39;34.20;78.10
26479;DHT22;14163;-26.142;27.992;2024-02-23T13:14:10;34.00;79.10
26479;DHT22;14163;-26.142;27.992;2024-02-23T13:16:39;34.10;79.20
26479;DHT22;14163;-26.142;27.992;2024-02-23T13:19:08;34.10;79.00
26479;DHT22;14163;-26.142;27.992;2024-02-23T13:21:37;34.10;77.70
26479;DHT22;14163;-26.142;27.992;2024-02-23T13:24:06;34.10;78.00
26479;DHT22;14163;-26.142;27.992;2024-02-23T13:26:35;34.00;75.60
26479;DHT22;14163;-26.142;27.992;2024-02-23T13:29:04;33.90;72.80
26479;DHT22;14163;-26.142;27.992;2024-02-23T13:31:35;33.80;71.00
26479;DHT22;14163;-26.142;27.992;2024-02-23T13:34:05;33.80;70.50
26479;DHT22;14163;-26.142;27.992;2024-02-23T13:36:36;33.90;76.30
26479;DHT22;14163;-26.142;27.992;2024-02-23T13:39:05;33.90;75.20
26479;DHT22;14163;-26.142;27.992;2024-02-23T13:41:35;33.70;73.70
26479;DHT22;14163;-26.142;27.992;2024-02-23T13:44:05;33.50;72.10
26479;DHT22;14163;-26.142;27.992;2024-02-23T13:46:38;33.40;72.00
26479;DHT22;14163;-26.142;27.992;2024-02-23T13:49:08;33.40;74.20
26479;DHT22;14163;-26.142;27.992;2024-02-23T13:51:39;33.60;75.10
26479;DHT22;14163;-26.142;27.992;2024-02-23T13:54:08;33.80;75.80
26479;DHT22;14163;-26.142;27.992;2024-02-23T13:56:37;33.90;72.20
26479;DHT22;14163;-26.142;27.992;2024-02-23T13:59:06;33.80;73.00
26479;DHT22;14163;-26.142;27.992;2024-02-23T16:07:36;28.60;93.40
26479;DHT22;14163;-26.142;27.992;2024-02-23T16:10:06;28.60;94.10
26479;DHT22;14163;-26.142;27.992;2024-02-23T16:12:36;29.10;93.80
26479;DHT22;14163;-26.142;27.992;2024-02-23T16:15:06;29.80;93.30
26479;DHT22;14163;-26.142;27.992;2024-02-23T16:17:35;30.40;92.60
26479;DHT22;14163;-26.142;27.992;2024-02-23T16:20:06;31.00;91.70
26479;DHT22;14163;-26.142;27.992;2024-02-23T16:22:37;31.60;90.10
26479;DHT22;14163;-26.142;27.992;2024-02-23T16:25:07;31.80;89.10
26479;DHT22;14163;-26.142;27.992;2024-02-23T16:27:36;31.90;87.20
26479;DHT22;14163;-26.142;27.992;2024-02-23T16:30:09;32.00;85.70
26479;DHT22;14163;-26.142;27.992;2024-02-23T16:32:38;32.10;85.30
26479;DHT22;14163;-26.142;27.992;2024-02-23T16:35:07;32.20;83.90
26479;DHT22;14163;-26.142;27.992;2024-02-23T16:37:44;32.30;83.00
26479;DHT22;14163;-26.142;27.992;2024-02-23T16:40:23;32.40;84.20
26479;DHT22;14163;-26.142;27.992;2024-02-23T16:42:55;32.50;81.10
26479;DHT22;14163;-26.142;27.992;2024-02-23T16:45:24;32.60;80.00
26479;DHT22;14163;-26.142;27.992;2024-02-23T16:47:53;32.50;79.00
26479;DHT22;14163;-26.142;27.992;2024-02-23T16:50:22;32.50;79.40
26479;DHT22;14163;-26.142;27.992;2024-02-23T16:52:53;32.50;78.60
26479;DHT22;14163;-26.142;27.992;2024-02-23T16:55:22;32.40;77.70
26479;DHT22;14163;-26.142;27.992;2024-02-23T16:57:51;32.40;78.60
26479;DHT22;14163;-26.142;27.992;2024-02-23T17:00:20;32.30;79.70
26479;DHT22;14163;-26.142;27.992;2024-02-23T17:02:50;32.30;80.50
26479;DHT22;14163;-26.142;27.992;2024-02-23T17:05:19;32.40;81.40
26479;DHT22;14163;-26.142;27.992;2024-02-23T17:07:48;32.30;82.70
26479;DHT22;14163;-26.142;27.992;2024-02-23T17:10:19;32.30;83.60
26479;DHT22;14163;-26.142;27.992;2024-02-23T17:12:48;32.20;84.10
26479;DHT22;14163;-26.142;27.992;2024-02-23T17:15:19;32.10;85.00
26479;DHT22;14163;-26.142;27.992;2024-02-23T17:17:49;32.00;85.80
26479;DHT22;14163;-26.142;27.992;2024-02-23T17:20:18;31.90;86.00
26479;DHT22;14163;-26.142;27.992;2024-02-23T17:22:48;31.90;86.70
26479;DHT22;14163;-26.142;27.992;2024-02-23T17:25:18;31.70;86.90
26479;DHT22;14163;-26.142;27.992;2024-02-23T17:27:48;31.50;87.40
26479;DHT22;14163;-26.142;27.992;2024-02-23T17:30:19;31.40;86.90
26479;DHT22;14163;-26.142;27.992;2024-02-23T17:32:48;31.30;86.90
26479;DHT22;14163;-26.142;27.992;2024-02-23T17:35:17;31.40;86.30
26479;DHT22;14163;-26.142;27.992;2024-02-23T17:37:46;31.30;85.10
26479;DHT22;14163;-26.142;27.992;2024-02-23T17:40:17;31.20;84.50
26479;DHT22;14163;-26.142;27.992;2024-02-23T17:42:46;31.00;84.70
26479;DHT22;14163;-26.142;27.992;2024-02-23T17:45:15;30.90;85.10
26479;DHT22;14163;-26.142;27.992;2024-02-23T17:47:45;30.80;86.10
26479;DHT22;14163;-26.142;27.992;2024-02-23T17:50:14;30.80;88.70
26479;DHT22;14163;-26.142;27.992;2024-02-23T17:52:43;30.80;90.50
26479;DHT22;14163;-26.142;27.992;2024-02-23T17:55:12;30.70;92.20
26479;DHT22;14163;-26.142;27.992;2024-02-23T17:57:42;30.50;93.90
26479;DHT22;14163;-26.142;27.992;2024-02-23T18:00:13;30.00;95.50
26479;DHT22;14163;-26.142;27.992;2024-02-23T18:02:42;29.70;96.70
26479;DHT22;14163;-26.142;27.992;2024-02-23T18:05:11;29.40;98.30
26479;DHT22;14163;-26.142;27.992;2024-02-23T18:07:40;29.10;99.90
26479;DHT22;14163;-26.142;27.992;2024-02-23T18:10:09;28.90;99.90
26479;DHT22;14163;-26.142;27.992;2024-02-23T18:12:38;28.70;99.90
26479;DHT22;14163;-26.142;27.992;2024-02-23T18:15:10;28.60;99.90
26479;DHT22;14163;-26.142;27.992;2024-02-23T18:17:39;28.50;99.90
26479;DHT22;14163;-26.142;27.992;2024-02-23T18:20:10;28.50;99.90
26479;DHT22;14163;-26.142;27.992;2024-02-23T18:22:40;28.50;99.90
26479;DHT22;14163;-26.142;27.992;2024-02-23T18:25:09;28.40;99.90
26479;DHT22;14163;-26.142;27.992;2024-02-23T18:27:38;28.40;99.90
26479;DHT22;14163;-26.142;27.992;2024-02-23T18:30:10;28.30;99.90
26479;DHT22;14163;-26.142;27.992;2024-02-23T18:32:39;28.20;99.90
26479;DHT22;14163;-26.142;27.992;2024-02-23T18:35:09;28.20;99.90
26479;DHT22;14163;-26.142;27.992;2024-02-23T18:37:38;28.20;99.90
26479;DHT22;14163;-26.142;27.992;2024-02-23T18:40:08;28.10;99.90
26479;DHT22;14163;-26.142;27.992;2024-02-23T18:42:37;28.00;99.90
26479;DHT22;14163;-26.142;27.992;2024-02-23T18:45:09;27.90;99.90
26479;DHT22;14163;-26.142;27.992;2024-02-23T18:47:43;27.90;99.90
26479;DHT22;14163;-26.142;27.992;2024-02-23T18:50:13;27.90;99.90
26479;DHT22;14163;-26.142;27.992;2024-02-23T18:52:42;28.10;99.90
26479;DHT22;14163;-26.142;27.992;2024-02-23T18:55:11;28.00;99.90
26479;DHT22;14163;-26.142;27.992;2024-02-23T18:57:41;27.90;99.90
26479;DHT22;14163;-26.142;27.992;2024-02-23T19:00:13;27.90;99.90
26479;DHT22;14163;-26.142;27.992;2024-02-23T19:02:42;27.60;99.90
26479;DHT22;14163;-26.142;27.992;2024-02-23T19:05:11;27.50;99.90
26479;DHT22;14163;-26.142;27.992;2024-02-23T19:07:41;27.30;99.90
26479;DHT22;14163;-26.142;27.992;2024-02-23T19:10:10;26.90;99.90
26479;DHT22;14163;-26.142;27.992;2024-02-23T19:12:39;26.40;99.90
26479;DHT22;14163;-26.142;27.992;2024-02-23T19:15:09;26.40;99.90
26479;DHT22;14163;-26.142;27.992;2024-02-23T19:17:40;26.80;99.90
26479;DHT22;14163;-26.142;27.992;2024-02-23T19:20:10;27.10;99.90
26479;DHT22;14163;-26.142;27.992;2024-02-23T19:22:39;27.40;99.90
26479;DHT22;14163;-26.142;27.992;2024-02-23T19:25:09;27.50;99.90
26479;DHT22;14163;-26.142;27.992;2024-02-23T19:27:39;27.70;99.90
26479;DHT22;14163;-26.142;27.992;2024-02-23T19:30:09;27.90;99.90
26479;DHT22;14163;-26.142;27.992;2024-02-23T19:32:43;28.10;99.90
26479;DHT22;14163;-26.142;27.992;2024-02-23T19:35:13;28.20;99.90
26479;DHT22;14163;-26.142;27.992;2024-02-23T19:37:42;28.10;99.90
26479;DHT22;14163;-26.142;27.992;2024-02-23T19:40:11;28.10;99.90